sensor_id;sensor_type;location;lat;lon;timestamp;P1;durP1;ratioP1;P2;durP2;ratioP2
15055;SDS011;7626;42.674;23.284;2022-10-16T00:01:21;10.50;;;9.40;;
15055;SDS011;7626;42.674;23.284;2022-10-16T00:03:51;10.50;;;9.40;;
15055;SDS011;7626;42.674;23.284;2022-10-16T00:06:21;10.10;;;9.17;;
15055;SDS011;7626;42.674;23.284;2022-10-16T00:08:49;10.53;;;9.40;;
15055;SDS011;7626;42.674;23.284;2022-10-16T00:11:19;10.00;;;9.00;;
15055;SDS011;7626;42.674;23.284;2022-10-16T00:13:48;11.03;;;9.07;;
15055;SDS011;7626;42.674;23.284;2022-10-16T00:16:18;11.40;;;9.17;;
15055;SDS011;7626;42.674;23.284;2022-10-16T00:18:46;10.23;;;9.00;;
15055;SDS011;7626;42.674;23.284;2022-10-16T00:21:14;11.57;;;9.90;;
15055;SDS011;7626;42.674;23.284;2022-10-16T00:23:45;10.43;;;9.20;;
15055;SDS011;7626;42.674;23.284;2022-10-16T00:26:14;11.13;;;8.90;;
15055;SDS011;7626;42.674;23.284;2022-10-16T00:28:44;11.23;;;9.67;;
15055;SDS011;7626;42.674;23.284;2022-10-16T00:31:14;10.53;;;9.53;;
15055;SDS011;7626;42.674;23.284;2022-10-16T00:33:42;10.80;;;9.67;;
15055;SDS011;7626;42.674;23.284;2022-10-16T00:36:12;10.63;;;9.53;;
15055;SDS011;7626;42.674;23.284;2022-10-16T00:38:42;11.43;;;10.30;;
15055;SDS011;7626;42.674;23.284;2022-10-16T00:41:11;11.03;;;9.87;;
15055;SDS011;7626;42.674;23.284;2022-10-16T00:43:41;10.93;;;9.83;;
15055;SDS011;7626;42.674;23.284;2022-10-16T00:46:12;11.03;;;9.93;;
15055;SDS011;7626;42.674;23.284;2022-10-16T00:48:45;11.67;;;9.97;;
15055;SDS011;7626;42.674;23.284;2022-10-16T00:51:17;11.23;;;9.90;;
15055;SDS011;7626;42.674;23.284;2022-10-16T00:53:49;11.30;;;10.17;;
15055;SDS011;7626;42.674;23.284;2022-10-16T00:56:19;11.20;;;10.10;;
15055;SDS011;7626;42.674;23.284;2022-10-16T00:58:47;13.03;;;11.10;;
15055;SDS011;7626;42.674;23.284;2022-10-16T01:01:15;11.70;;;10.57;;
15055;SDS011;7626;42.674;23.284;2022-10-16T01:03:43;13.57;;;10.97;;
15055;SDS011;7626;42.674;23.284;2022-10-16T01:06:15;15.20;;;11.70;;
15055;SDS011;7626;42.674;23.284;2022-10-16T01:08:54;12.47;;;11.23;;
15055;SDS011;7626;42.674;23.284;2022-10-16T01:11:32;14.10;;;11.00;;
15055;SDS011;7626;42.674;23.284;2022-10-16T01:14:05;13.80;;;11.10;;
15055;SDS011;7626;42.674;23.284;2022-10-16T01:16:39;12.37;;;11.07;;
15055;SDS011;7626;42.674;23.284;2022-10-16T01:19:16;14.07;;;10.90;;
15055;SDS011;7626;42.674;23.284;2022-10-16T01:21:51;11.07;;;9.97;;
15055;SDS011;7626;42.674;23.284;2022-10-16T01:24:27;11.00;;;9.40;;
15055;SDS011;7626;42.674;23.284;2022-10-16T01:27:06;11.67;;;9.73;;
15055;SDS011;7626;42.674;23.284;2022-10-16T01:29:37;10.70;;;9.63;;
15055;SDS011;7626;42.674;23.284;2022-10-16T01:32:13;9.57;;;8.57;;
15055;SDS011;7626;42.674;23.284;2022-10-16T01:34:45;9.83;;;8.83;;
15055;SDS011;7626;42.674;23.284;2022-10-16T01:37:16;9.63;;;8.63;;
15055;SDS011;7626;42.674;23.284;2022-10-16T01:39:51;9.80;;;8.27;;
15055;SDS011;7626;42.674;23.284;2022-10-16T01:42:28;9.47;;;8.57;;
15055;SDS011;7626;42.674;23.284;2022-10-16T01:45:00;10.53;;;8.93;;
15055;SDS011;7626;42.674;23.284;2022-10-16T01:47:30;10.53;;;9.43;;
15055;SDS011;7626;42.674;23.284;2022-10-16T01:49:59;9.93;;;8.93;;
15055;SDS011;7626;42.674;23.284;2022-10-16T01:52:28;11.13;;;9.40;;
15055;SDS011;7626;42.674;23.284;2022-10-16T01:54:56;10.57;;;9.47;;
15055;SDS011;7626;42.674;23.284;2022-10-16T01:57:25;10.77;;;9.67;;
15055;SDS011;7626;42.674;23.284;2022-10-16T01:59:56;10.57;;;9.57;;
15055;SDS011;7626;42.674;23.284;2022-10-16T02:02:28;10.50;;;9.30;;
15055;SDS011;7626;42.674;23.284;2022-10-16T02:05:02;10.90;;;9.53;;
15055;SDS011;7626;42.674;23.284;2022-10-16T02:07:36;10.83;;;9.77;;
15055;SDS011;7626;42.674;23.284;2022-10-16T02:10:04;11.23;;;10.03;;
15055;SDS011;7626;42.674;23.284;2022-10-16T02:12:34;10.47;;;9.37;;
15055;SDS011;7626;42.674;23.284;2022-10-16T02:15:06;10.10;;;9.10;;
15055;SDS011;7626;42.674;23.284;2022-10-16T02:17:34;9.90;;;8.57;;
15055;SDS011;7626;42.674;23.284;2022-10-16T02:20:03;10.57;;;9.00;;
15055;SDS011;7626;42.674;23.284;2022-10-16T02:22:33;9.50;;;8.60;;
15055;SDS011;7626;42.674;23.284;2022-10-16T02:25:06;9.77;;;8.67;;
15055;SDS011;7626;42.674;23.284;2022-10-16T02:27:40;10.10;;;9.10;;
15055;SDS011;7626;42.674;23.284;2022-10-16T02:30:13;9.30;;;8.40;;
15055;SDS011;7626;42.674;23.284;2022-10-16T02:32:45;9.33;;;8.20;;
15055;SDS011;7626;42.674;23.284;2022-10-16T02:35:15;9.63;;;8.63;;
15055;SDS011;7626;42.674;23.284;2022-10-16T02:37:43;9.30;;;8.40;;
15055;SDS011;7626;42.674;23.284;2022-10-16T02:40:13;9.20;;;8.30;;
15055;SDS011;7626;42.674;23.284;2022-10-16T02:42:42;9.10;;;8.20;;
15055;SDS011;7626;42.674;23.284;2022-10-16T02:45:11;10.00;;;8.60;;
15055;SDS011;7626;42.674;23.284;2022-10-16T02:47:39;10.63;;;8.20;;
15055;SDS011;7626;42.674;23.284;2022-10-16T02:50:07;9.60;;;8.33;;
15055;SDS011;7626;42.674;23.284;2022-10-16T02:52:35;9.23;;;8.00;;
15055;SDS011;7626;42.674;23.284;2022-10-16T02:55:04;8.67;;;7.80;;
15055;SDS011;7626;42.674;23.284;2022-10-16T02:57:33;9.47;;;7.90;;
15055;SDS011;7626;42.674;23.284;2022-10-16T03:00:06;8.97;;;8.07;;
15055;SDS011;7626;42.674;23.284;2022-10-16T03:02:35;9.23;;;8.27;;
15055;SDS011;7626;42.674;23.284;2022-10-16T03:05:02;9.47;;;8.37;;
15055;SDS011;7626;42.674;23.284;2022-10-16T03:07:29;9.13;;;8.27;;
15055;SDS011;7626;42.674;23.284;2022-10-16T03:09:57;9.20;;;8.23;;
15055;SDS011;7626;42.674;23.284;2022-10-16T03:12:26;9.70;;;8.80;;
15055;SDS011;7626;42.674;23.284;2022-10-16T03:14:53;9.63;;;8.53;;
15055;SDS011;7626;42.674;23.284;2022-10-16T03:17:23;9.03;;;8.10;;
15055;SDS011;7626;42.674;23.284;2022-10-16T03:19:50;12.13;;;8.63;;
15055;SDS011;7626;42.674;23.284;2022-10-16T03:22:17;10.93;;;9.10;;
15055;SDS011;7626;42.674;23.284;2022-10-16T03:24:44;10.10;;;9.10;;
15055;SDS011;7626;42.674;23.284;2022-10-16T03:27:12;10.17;;;9.27;;
15055;SDS011;7626;42.674;23.284;2022-10-16T03:29:40;9.70;;;8.60;;
15055;SDS011;7626;42.674;23.284;2022-10-16T03:32:08;10.67;;;9.57;;
15055;SDS011;7626;42.674;23.284;2022-10-16T03:34:36;9.87;;;8.87;;
15055;SDS011;7626;42.674;23.284;2022-10-16T03:37:03;10.37;;;9.20;;
15055;SDS011;7626;42.674;23.284;2022-10-16T03:39:29;9.83;;;8.83;;
15055;SDS011;7626;42.674;23.284;2022-10-16T03:41:57;10.10;;;9.07;;
15055;SDS011;7626;42.674;23.284;2022-10-16T03:44:25;10.27;;;9.33;;
15055;SDS011;7626;42.674;23.284;2022-10-16T03:46:53;10.53;;;9.43;;
15055;SDS011;7626;42.674;23.284;2022-10-16T03:49:21;9.97;;;8.97;;
15055;SDS011;7626;42.674;23.284;2022-10-16T03:51:49;11.87;;;9.60;;
15055;SDS011;7626;42.674;23.284;2022-10-16T03:54:17;10.07;;;8.80;;
15055;SDS011;7626;42.674;23.284;2022-10-16T03:56:45;10.27;;;9.27;;
15055;SDS011;7626;42.674;23.284;2022-10-16T03:59:14;10.10;;;9.00;;
15055;SDS011;7626;42.674;23.284;2022-10-16T04:01:41;11.00;;;8.93;;
15055;SDS011;7626;42.674;23.284;2022-10-16T04:04:09;10.40;;;9.40;;
15055;SDS011;7626;42.674;23.284;2022-10-16T04:06:35;10.60;;;9.33;;
15055;SDS011;7626;42.674;23.284;2022-10-16T04:09:04;10.37;;;9.30;;
15055;SDS011;7626;42.674;23.284;2022-10-16T04:11:30;10.37;;;9.30;;
15055;SDS011;7626;42.674;23.284;2022-10-16T04:13:58;10.17;;;9.03;;
15055;SDS011;7626;42.674;23.284;2022-10-16T04:16:25;12.37;;;8.60;;
15055;SDS011;7626;42.674;23.284;2022-10-16T04:18:54;9.10;;;8.20;;
15055;SDS011;7626;42.674;23.284;2022-10-16T04:21:21;10.17;;;8.77;;
15055;SDS011;7626;42.674;23.284;2022-10-16T04:23:48;10.53;;;9.03;;
15055;SDS011;7626;42.674;23.284;2022-10-16T04:26:17;9.90;;;9.00;;
15055;SDS011;7626;42.674;23.284;2022-10-16T04:28:46;9.17;;;8.17;;
15055;SDS011;7626;42.674;23.284;2022-10-16T04:31:14;9.33;;;8.20;;
15055;SDS011;7626;42.674;23.284;2022-10-16T04:33:42;10.20;;;8.50;;
15055;SDS011;7626;42.674;23.284;2022-10-16T04:36:10;10.47;;;8.17;;
15055;SDS011;7626;42.674;23.284;2022-10-16T04:38:37;11.87;;;8.47;;
15055;SDS011;7626;42.674;23.284;2022-10-16T04:41:04;10.00;;;8.77;;
15055;SDS011;7626;42.674;23.284;2022-10-16T04:43:33;9.30;;;8.40;;
15055;SDS011;7626;42.674;23.284;2022-10-16T04:46:00;9.83;;;8.30;;
15055;SDS011;7626;42.674;23.284;2022-10-16T04:48:29;9.97;;;8.13;;
15055;SDS011;7626;42.674;23.284;2022-10-16T04:50:58;8.73;;;7.83;;
15055;SDS011;7626;42.674;23.284;2022-10-16T04:53:24;10.87;;;8.50;;
15055;SDS011;7626;42.674;23.284;2022-10-16T04:55:51;9.33;;;8.07;;
15055;SDS011;7626;42.674;23.284;2022-10-16T04:58:18;10.13;;;8.50;;
15055;SDS011;7626;42.674;23.284;2022-10-16T05:00:47;9.30;;;8.40;;
15055;SDS011;7626;42.674;23.284;2022-10-16T05:03:14;9.50;;;8.43;;
15055;SDS011;7626;42.674;23.284;2022-10-16T05:05:42;9.30;;;8.27;;
15055;SDS011;7626;42.674;23.284;2022-10-16T05:08:10;9.60;;;8.60;;
15055;SDS011;7626;42.674;23.284;2022-10-16T05:10:37;9.33;;;8.33;;
15055;SDS011;7626;42.674;23.284;2022-10-16T05:13:06;9.13;;;8.20;;
15055;SDS011;7626;42.674;23.284;2022-10-16T05:15:33;12.23;;;8.93;;
15055;SDS011;7626;42.674;23.284;2022-10-16T05:18:01;10.10;;;9.00;;
15055;SDS011;7626;42.674;23.284;2022-10-16T05:20:29;10.13;;;8.60;;
15055;SDS011;7626;42.674;23.284;2022-10-16T05:22:56;10.87;;;8.47;;
15055;SDS011;7626;42.674;23.284;2022-10-16T05:25:23;10.83;;;8.47;;
15055;SDS011;7626;42.674;23.284;2022-10-16T05:27:50;9.50;;;8.60;;
15055;SDS011;7626;42.674;23.284;2022-10-16T05:30:18;11.03;;;8.70;;
15055;SDS011;7626;42.674;23.284;2022-10-16T05:32:48;10.37;;;9.03;;
15055;SDS011;7626;42.674;23.284;2022-10-16T05:35:18;10.30;;;9.20;;
15055;SDS011;7626;42.674;23.284;2022-10-16T05:37:46;10.33;;;9.20;;
15055;SDS011;7626;42.674;23.284;2022-10-16T05:40:13;10.13;;;9.10;;
15055;SDS011;7626;42.674;23.284;2022-10-16T05:42:42;10.80;;;9.70;;
15055;SDS011;7626;42.674;23.284;2022-10-16T05:45:09;11.77;;;9.50;;
15055;SDS011;7626;42.674;23.284;2022-10-16T05:47:38;12.20;;;9.90;;
15055;SDS011;7626;42.674;23.284;2022-10-16T05:50:05;12.73;;;10.20;;
15055;SDS011;7626;42.674;23.284;2022-10-16T05:52:33;11.27;;;10.00;;
15055;SDS011;7626;42.674;23.284;2022-10-16T05:55:01;10.73;;;9.60;;
15055;SDS011;7626;42.674;23.284;2022-10-16T05:57:30;11.67;;;10.57;;
15055;SDS011;7626;42.674;23.284;2022-10-16T05:59:57;12.63;;;10.87;;
15055;SDS011;7626;42.674;23.284;2022-10-16T06:02:28;12.37;;;11.07;;
15055;SDS011;7626;42.674;23.284;2022-10-16T06:04:56;13.80;;;12.17;;
15055;SDS011;7626;42.674;23.284;2022-10-16T06:07:26;13.80;;;12.37;;
15055;SDS011;7626;42.674;23.284;2022-10-16T06:09:55;15.30;;;12.77;;
15055;SDS011;7626;42.674;23.284;2022-10-16T06:12:23;15.20;;;13.50;;
15055;SDS011;7626;42.674;23.284;2022-10-16T06:14:51;14.80;;;13.07;;
15055;SDS011;7626;42.674;23.284;2022-10-16T06:17:19;15.07;;;13.53;;
15055;SDS011;7626;42.674;23.284;2022-10-16T06:19:46;14.43;;;13.03;;
15055;SDS011;7626;42.674;23.284;2022-10-16T06:22:14;16.57;;;13.10;;
15055;SDS011;7626;42.674;23.284;2022-10-16T06:24:43;14.30;;;12.40;;
15055;SDS011;7626;42.674;23.284;2022-10-16T06:27:13;14.57;;;12.93;;
15055;SDS011;7626;42.674;23.284;2022-10-16T06:29:43;14.83;;;12.30;;
15055;SDS011;7626;42.674;23.284;2022-10-16T06:32:10;12.63;;;11.33;;
15055;SDS011;7626;42.674;23.284;2022-10-16T06:34:38;13.93;;;12.20;;
15055;SDS011;7626;42.674;23.284;2022-10-16T06:37:09;18.93;;;12.53;;
15055;SDS011;7626;42.674;23.284;2022-10-16T06:39:37;15.20;;;11.67;;
15055;SDS011;7626;42.674;23.284;2022-10-16T06:42:05;13.30;;;11.90;;
15055;SDS011;7626;42.674;23.284;2022-10-16T06:44:34;13.57;;;11.93;;
15055;SDS011;7626;42.674;23.284;2022-10-16T06:47:01;12.77;;;11.50;;
15055;SDS011;7626;42.674;23.284;2022-10-16T06:49:30;13.73;;;12.17;;
15055;SDS011;7626;42.674;23.284;2022-10-16T06:52:01;13.97;;;11.17;;
15055;SDS011;7626;42.674;23.284;2022-10-16T06:54:37;11.73;;;10.63;;
15055;SDS011;7626;42.674;23.284;2022-10-16T06:57:05;11.77;;;10.67;;
15055;SDS011;7626;42.674;23.284;2022-10-16T06:59:38;11.97;;;10.77;;
15055;SDS011;7626;42.674;23.284;2022-10-16T07:02:06;11.83;;;10.53;;
15055;SDS011;7626;42.674;23.284;2022-10-16T07:04:36;12.50;;;10.83;;
15055;SDS011;7626;42.674;23.284;2022-10-16T07:07:04;12.00;;;10.37;;
15055;SDS011;7626;42.674;23.284;2022-10-16T07:09:32;13.27;;;12.03;;
15055;SDS011;7626;42.674;23.284;2022-10-16T07:11:58;14.10;;;12.70;;
15055;SDS011;7626;42.674;23.284;2022-10-16T07:14:25;14.10;;;12.60;;
15055;SDS011;7626;42.674;23.284;2022-10-16T07:16:54;17.73;;;16.03;;
15055;SDS011;7626;42.674;23.284;2022-10-16T07:19:22;16.93;;;14.70;;
15055;SDS011;7626;42.674;23.284;2022-10-16T07:21:50;15.00;;;13.40;;
15055;SDS011;7626;42.674;23.284;2022-10-16T07:24:17;13.80;;;12.40;;
15055;SDS011;7626;42.674;23.284;2022-10-16T07:26:44;12.37;;;11.07;;
15055;SDS011;7626;42.674;23.284;2022-10-16T07:29:13;13.00;;;11.20;;
15055;SDS011;7626;42.674;23.284;2022-10-16T07:31:41;12.50;;;11.20;;
15055;SDS011;7626;42.674;23.284;2022-10-16T07:34:10;14.47;;;11.83;;
15055;SDS011;7626;42.674;23.284;2022-10-16T07:36:40;13.40;;;11.90;;
15055;SDS011;7626;42.674;23.284;2022-10-16T07:39:07;13.90;;;12.00;;
15055;SDS011;7626;42.674;23.284;2022-10-16T07:41:38;14.83;;;11.93;;
15055;SDS011;7626;42.674;23.284;2022-10-16T07:44:05;14.77;;;11.57;;
15055;SDS011;7626;42.674;23.284;2022-10-16T07:46:33;12.00;;;10.83;;
15055;SDS011;7626;42.674;23.284;2022-10-16T07:49:01;18.77;;;15.23;;
15055;SDS011;7626;42.674;23.284;2022-10-16T07:51:31;14.00;;;12.60;;
15055;SDS011;7626;42.674;23.284;2022-10-16T07:53:59;13.90;;;12.37;;
15055;SDS011;7626;42.674;23.284;2022-10-16T07:56:28;14.37;;;12.60;;
15055;SDS011;7626;42.674;23.284;2022-10-16T07:58:59;14.43;;;12.10;;
15055;SDS011;7626;42.674;23.284;2022-10-16T08:01:27;24.40;;;13.07;;
15055;SDS011;7626;42.674;23.284;2022-10-16T08:03:55;21.20;;;12.47;;
15055;SDS011;7626;42.674;23.284;2022-10-16T08:06:21;18.80;;;12.50;;
15055;SDS011;7626;42.674;23.284;2022-10-16T08:08:50;15.47;;;12.47;;
15055;SDS011;7626;42.674;23.284;2022-10-16T08:11:17;17.43;;;12.30;;
15055;SDS011;7626;42.674;23.284;2022-10-16T08:13:45;14.13;;;11.83;;
15055;SDS011;7626;42.674;23.284;2022-10-16T08:16:13;12.90;;;11.57;;
15055;SDS011;7626;42.674;23.284;2022-10-16T08:18:41;12.90;;;11.60;;
15055;SDS011;7626;42.674;23.284;2022-10-16T08:21:11;15.87;;;12.63;;
15055;SDS011;7626;42.674;23.284;2022-10-16T08:23:40;11.83;;;10.63;;
15055;SDS011;7626;42.674;23.284;2022-10-16T08:26:08;11.20;;;10.10;;
15055;SDS011;7626;42.674;23.284;2022-10-16T08:28:37;11.90;;;10.70;;
15055;SDS011;7626;42.674;23.284;2022-10-16T08:31:05;11.93;;;10.23;;
15055;SDS011;7626;42.674;23.284;2022-10-16T08:33:34;10.60;;;9.03;;
15055;SDS011;7626;42.674;23.284;2022-10-16T08:36:01;9.10;;;8.20;;
15055;SDS011;7626;42.674;23.284;2022-10-16T08:38:29;9.63;;;8.57;;
15055;SDS011;7626;42.674;23.284;2022-10-16T08:40:57;9.00;;;7.93;;
15055;SDS011;7626;42.674;23.284;2022-10-16T08:43:47;8.50;;;7.20;;
15055;SDS011;7626;42.674;23.284;2022-10-16T08:46:42;8.00;;;7.17;;
15055;SDS011;7626;42.674;23.284;2022-10-16T08:49:24;7.90;;;7.10;;
15055;SDS011;7626;42.674;23.284;2022-10-16T08:51:51;7.93;;;6.40;;
15055;SDS011;7626;42.674;23.284;2022-10-16T08:54:21;7.00;;;6.33;;
15055;SDS011;7626;42.674;23.284;2022-10-16T08:57:01;6.47;;;5.77;;
15055;SDS011;7626;42.674;23.284;2022-10-16T08:59:38;8.83;;;6.30;;
15055;SDS011;7626;42.674;23.284;2022-10-16T09:02:12;20.27;;;6.97;;
15055;SDS011;7626;42.674;23.284;2022-10-16T09:04:54;10.33;;;5.70;;
15055;SDS011;7626;42.674;23.284;2022-10-16T09:07:32;21.50;;;8.13;;
15055;SDS011;7626;42.674;23.284;2022-10-16T09:10:21;7.30;;;6.30;;
15055;SDS011;7626;42.674;23.284;2022-10-16T09:12:58;5.97;;;5.07;;
15055;SDS011;7626;42.674;23.284;2022-10-16T09:15:37;5.45;;;4.65;;
15055;SDS011;7626;42.674;23.284;2022-10-16T09:18:10;6.05;;;5.45;;
15055;SDS011;7626;42.674;23.284;2022-10-16T09:20:46;4.70;;;4.30;;
15055;SDS011;7626;42.674;23.284;2022-10-16T09:23:19;5.88;;;4.40;;
15055;SDS011;7626;42.674;23.284;2022-10-16T09:25:52;4.72;;;4.28;;
15055;SDS011;7626;42.674;23.284;2022-10-16T09:28:22;5.10;;;4.60;;
15055;SDS011;7626;42.674;23.284;2022-10-16T09:30:52;5.43;;;4.43;;
15055;SDS011;7626;42.674;23.284;2022-10-16T09:33:20;6.57;;;4.20;;
15055;SDS011;7626;42.674;23.284;2022-10-16T09:35:50;4.22;;;3.85;;
15055;SDS011;7626;42.674;23.284;2022-10-16T09:38:24;5.15;;;4.65;;
15055;SDS011;7626;42.674;23.284;2022-10-16T09:40:54;4.53;;;4.13;;
15055;SDS011;7626;42.674;23.284;2022-10-16T09:43:23;4.80;;;4.40;;
15055;SDS011;7626;42.674;23.284;2022-10-16T09:46:00;4.55;;;3.97;;
15055;SDS011;7626;42.674;23.284;2022-10-16T09:48:29;4.68;;;4.20;;
15055;SDS011;7626;42.674;23.284;2022-10-16T09:51:00;4.45;;;4.00;;
15055;SDS011;7626;42.674;23.284;2022-10-16T09:53:40;4.88;;;4.35;;
15055;SDS011;7626;42.674;23.284;2022-10-16T09:56:09;8.07;;;5.00;;
15055;SDS011;7626;42.674;23.284;2022-10-16T09:58:49;4.60;;;4.20;;
15055;SDS011;7626;42.674;23.284;2022-10-16T10:01:19;4.30;;;4.00;;
15055;SDS011;7626;42.674;23.284;2022-10-16T10:03:49;4.97;;;3.75;;
15055;SDS011;7626;42.674;23.284;2022-10-16T10:06:21;4.35;;;3.95;;
15055;SDS011;7626;42.674;23.284;2022-10-16T10:08:54;4.60;;;4.20;;
15055;SDS011;7626;42.674;23.284;2022-10-16T10:11:38;4.95;;;4.32;;
15055;SDS011;7626;42.674;23.284;2022-10-16T10:14:21;5.20;;;4.22;;
15055;SDS011;7626;42.674;23.284;2022-10-16T10:17:02;6.35;;;4.22;;
15055;SDS011;7626;42.674;23.284;2022-10-16T10:19:37;4.40;;;4.00;;
15055;SDS011;7626;42.674;23.284;2022-10-16T10:22:13;5.53;;;4.68;;
15055;SDS011;7626;42.674;23.284;2022-10-16T10:24:54;4.93;;;4.43;;
15055;SDS011;7626;42.674;23.284;2022-10-16T10:27:24;5.30;;;4.60;;
15055;SDS011;7626;42.674;23.284;2022-10-16T10:29:59;6.00;;;4.68;;
15055;SDS011;7626;42.674;23.284;2022-10-16T10:32:35;5.13;;;4.13;;
15055;SDS011;7626;42.674;23.284;2022-10-16T10:35:15;4.25;;;3.85;;
15055;SDS011;7626;42.674;23.284;2022-10-16T10:37:54;3.90;;;3.60;;
15055;SDS011;7626;42.674;23.284;2022-10-16T10:40:37;4.18;;;3.50;;
15055;SDS011;7626;42.674;23.284;2022-10-16T10:43:18;4.25;;;3.83;;
15055;SDS011;7626;42.674;23.284;2022-10-16T10:45:54;4.25;;;3.85;;
15055;SDS011;7626;42.674;23.284;2022-10-16T10:48:41;4.32;;;3.65;;
15055;SDS011;7626;42.674;23.284;2022-10-16T10:51:21;5.90;;;4.15;;
15055;SDS011;7626;42.674;23.284;2022-10-16T10:53:59;4.10;;;3.70;;
15055;SDS011;7626;42.674;23.284;2022-10-16T10:56:42;5.38;;;3.80;;
15055;SDS011;7626;42.674;23.284;2022-10-16T10:59:22;4.85;;;4.32;;
15055;SDS011;7626;42.674;23.284;2022-10-16T11:02:15;4.53;;;4.13;;
15055;SDS011;7626;42.674;23.284;2022-10-16T11:04:53;4.93;;;4.47;;
15055;SDS011;7626;42.674;23.284;2022-10-16T11:07:39;4.05;;;3.65;;
15055;SDS011;7626;42.674;23.284;2022-10-16T11:10:13;4.55;;;3.83;;
15055;SDS011;7626;42.674;23.284;2022-10-16T11:12:45;4.30;;;3.88;;
15055;SDS011;7626;42.674;23.284;2022-10-16T11:15:17;3.75;;;3.45;;
15055;SDS011;7626;42.674;23.284;2022-10-16T11:17:49;4.43;;;3.83;;
15055;SDS011;7626;42.674;23.284;2022-10-16T11:20:25;5.20;;;4.68;;
15055;SDS011;7626;42.674;23.284;2022-10-16T11:22:58;4.70;;;3.83;;
15055;SDS011;7626;42.674;23.284;2022-10-16T11:25:33;3.92;;;3.30;;
15055;SDS011;7626;42.674;23.284;2022-10-16T11:28:02;4.23;;;3.67;;
15055;SDS011;7626;42.674;23.284;2022-10-16T11:30:41;4.22;;;3.70;;
15055;SDS011;7626;42.674;23.284;2022-10-16T11:33:19;4.20;;;3.80;;
15055;SDS011;7626;42.674;23.284;2022-10-16T11:36:01;3.90;;;3.50;;
15055;SDS011;7626;42.674;23.284;2022-10-16T11:38:39;4.00;;;3.57;;
15055;SDS011;7626;42.674;23.284;2022-10-16T11:41:22;4.00;;;3.60;;
15055;SDS011;7626;42.674;23.284;2022-10-16T11:44:09;4.83;;;3.50;;
15055;SDS011;7626;42.674;23.284;2022-10-16T11:47:09;4.80;;;3.97;;
15055;SDS011;7626;42.674;23.284;2022-10-16T11:49:47;4.60;;;3.80;;
15055;SDS011;7626;42.674;23.284;2022-10-16T11:52:22;6.63;;;4.00;;
15055;SDS011;7626;42.674;23.284;2022-10-16T11:54:56;4.87;;;4.23;;
15055;SDS011;7626;42.674;23.284;2022-10-16T11:57:31;4.90;;;3.73;;
15055;SDS011;7626;42.674;23.284;2022-10-16T12:00:00;3.90;;;3.60;;
15055;SDS011;7626;42.674;23.284;2022-10-16T12:02:37;4.17;;;3.33;;
15055;SDS011;7626;42.674;23.284;2022-10-16T12:05:18;6.80;;;3.43;;
15055;SDS011;7626;42.674;23.284;2022-10-16T12:08:01;4.47;;;3.70;;
15055;SDS011;7626;42.674;23.284;2022-10-16T12:10:40;4.10;;;3.67;;
15055;SDS011;7626;42.674;23.284;2022-10-16T12:18:49;4.97;;;4.00;;
15055;SDS011;7626;42.674;23.284;2022-10-16T12:21:31;4.10;;;3.70;;
15055;SDS011;7626;42.674;23.284;2022-10-16T12:24:00;4.43;;;3.90;;
15055;SDS011;7626;42.674;23.284;2022-10-16T12:26:31;4.10;;;3.80;;
15055;SDS011;7626;42.674;23.284;2022-10-16T12:29:14;5.47;;;3.87;;
15055;SDS011;7626;42.674;23.284;2022-10-16T12:31:56;5.60;;;3.90;;
15055;SDS011;7626;42.674;23.284;2022-10-16T12:34:23;7.20;;;4.40;;
15055;SDS011;7626;42.674;23.284;2022-10-16T12:37:07;5.00;;;4.17;;
15055;SDS011;7626;42.674;23.284;2022-10-16T12:39:41;4.33;;;3.93;;
15055;SDS011;7626;42.674;23.284;2022-10-16T12:42:22;5.00;;;3.70;;
15055;SDS011;7626;42.674;23.284;2022-10-16T12:44:56;4.67;;;3.80;;
15055;SDS011;7626;42.674;23.284;2022-10-16T12:47:35;3.63;;;3.33;;
15055;SDS011;7626;42.674;23.284;2022-10-16T12:50:03;4.40;;;3.77;;
15055;SDS011;7626;42.674;23.284;2022-10-16T12:52:50;5.50;;;3.90;;
15055;SDS011;7626;42.674;23.284;2022-10-16T12:55:19;4.53;;;3.80;;
15055;SDS011;7626;42.674;23.284;2022-10-16T12:57:56;5.87;;;3.83;;
15055;SDS011;7626;42.674;23.284;2022-10-16T13:00:35;6.13;;;3.80;;
15055;SDS011;7626;42.674;23.284;2022-10-16T13:06:12;4.60;;;3.93;;
15055;SDS011;7626;42.674;23.284;2022-10-16T13:11:46;4.50;;;3.40;;
15055;SDS011;7626;42.674;23.284;2022-10-16T13:14:36;6.43;;;3.87;;
15055;SDS011;7626;42.674;23.284;2022-10-16T13:17:20;6.53;;;4.10;;
15055;SDS011;7626;42.674;23.284;2022-10-16T13:19:58;4.70;;;4.00;;
15055;SDS011;7626;42.674;23.284;2022-10-16T13:22:34;5.10;;;3.93;;
15055;SDS011;7626;42.674;23.284;2022-10-16T13:25:15;4.70;;;3.57;;
15055;SDS011;7626;42.674;23.284;2022-10-16T13:27:54;5.40;;;3.40;;
15055;SDS011;7626;42.674;23.284;2022-10-16T13:30:31;4.87;;;3.70;;
15055;SDS011;7626;42.674;23.284;2022-10-16T13:33:02;4.47;;;3.60;;
15055;SDS011;7626;42.674;23.284;2022-10-16T13:35:34;5.33;;;4.03;;
15055;SDS011;7626;42.674;23.284;2022-10-16T13:40:50;4.67;;;3.60;;
15055;SDS011;7626;42.674;23.284;2022-10-16T13:43:20;3.90;;;3.43;;
15055;SDS011;7626;42.674;23.284;2022-10-16T13:45:56;4.57;;;3.97;;
15055;SDS011;7626;42.674;23.284;2022-10-16T13:48:26;5.70;;;3.93;;
15055;SDS011;7626;42.674;23.284;2022-10-16T13:51:01;5.47;;;3.87;;
15055;SDS011;7626;42.674;23.284;2022-10-16T13:53:31;5.07;;;3.90;;
15055;SDS011;7626;42.674;23.284;2022-10-16T13:56:04;6.20;;;3.80;;
15055;SDS011;7626;42.674;23.284;2022-10-16T13:58:36;4.00;;;3.60;;
15055;SDS011;7626;42.674;23.284;2022-10-16T14:01:03;4.27;;;3.50;;
15055;SDS011;7626;42.674;23.284;2022-10-16T14:03:32;4.53;;;3.90;;
15055;SDS011;7626;42.674;23.284;2022-10-16T14:06:03;4.73;;;4.23;;
15055;SDS011;7626;42.674;23.284;2022-10-16T14:08:34;5.93;;;3.50;;
15055;SDS011;7626;42.674;23.284;2022-10-16T14:11:00;5.40;;;3.70;;
15055;SDS011;7626;42.674;23.284;2022-10-16T14:13:30;4.17;;;3.60;;
15055;SDS011;7626;42.674;23.284;2022-10-16T14:16:02;5.20;;;3.60;;
15055;SDS011;7626;42.674;23.284;2022-10-16T14:18:33;4.00;;;3.60;;
15055;SDS011;7626;42.674;23.284;2022-10-16T14:21:04;5.93;;;3.57;;
15055;SDS011;7626;42.674;23.284;2022-10-16T14:23:33;4.83;;;3.60;;
15055;SDS011;7626;42.674;23.284;2022-10-16T14:26:06;5.57;;;3.30;;
15055;SDS011;7626;42.674;23.284;2022-10-16T14:28:44;5.67;;;3.70;;
15055;SDS011;7626;42.674;23.284;2022-10-16T14:31:26;3.60;;;3.30;;
15055;SDS011;7626;42.674;23.284;2022-10-16T14:33:55;3.87;;;3.50;;
15055;SDS011;7626;42.674;23.284;2022-10-16T14:36:23;5.10;;;3.60;;
15055;SDS011;7626;42.674;23.284;2022-10-16T14:38:55;5.47;;;4.60;;
15055;SDS011;7626;42.674;23.284;2022-10-16T14:41:25;6.03;;;5.07;;
15055;SDS011;7626;42.674;23.284;2022-10-16T14:43:53;6.97;;;4.97;;
15055;SDS011;7626;42.674;23.284;2022-10-16T14:46:22;9.37;;;7.23;;
15055;SDS011;7626;42.674;23.284;2022-10-16T14:49:00;8.80;;;6.23;;
15055;SDS011;7626;42.674;23.284;2022-10-16T14:51:29;7.27;;;5.70;;
15055;SDS011;7626;42.674;23.284;2022-10-16T14:53:56;12.00;;;8.53;;
15055;SDS011;7626;42.674;23.284;2022-10-16T14:56:23;8.93;;;6.43;;
15055;SDS011;7626;42.674;23.284;2022-10-16T14:58:53;5.43;;;4.70;;
15055;SDS011;7626;42.674;23.284;2022-10-16T15:01:21;4.53;;;4.03;;
15055;SDS011;7626;42.674;23.284;2022-10-16T15:03:49;5.70;;;4.10;;
15055;SDS011;7626;42.674;23.284;2022-10-16T15:06:17;5.57;;;4.90;;
15055;SDS011;7626;42.674;23.284;2022-10-16T15:08:44;6.97;;;4.20;;
15055;SDS011;7626;42.674;23.284;2022-10-16T15:11:11;5.70;;;4.00;;
15055;SDS011;7626;42.674;23.284;2022-10-16T15:13:39;3.93;;;3.60;;
15055;SDS011;7626;42.674;23.284;2022-10-16T15:16:07;4.57;;;3.40;;
15055;SDS011;7626;42.674;23.284;2022-10-16T15:18:36;6.33;;;3.60;;